WIMM/MES METAR and TAF weather

Enter ICAO airport designator
Station Type Date Time Source
WIMM METAR 2020/01/19 23:00 UTC NOAA

WIMM 192300Z 22003KT 5000 HZ SCT018 25/25 Q1010 NOSIG


Station Type Date Time Source
WIMM Decoded METAR 2020/01/19 23:00 UTC NOAA

Medan / Polonia, Indonesia (WIMM) 03-34N 098-41E 25M
Jan 19, 2020 - 06:00 PM EST / 2020.01.19 2300 UTC
Wind: from the SW (220 degrees) at 3 MPH (3 KT):0
Visibility: 3 mile(s):0
Sky conditions: partly cloudy
Weather: haze
Temperature: 77 F (25 C)
Dew Point: 77 F (25 C)
Relative Humidity: 100%
Pressure (altimeter): 29.83 in. Hg (1010 hPa)
ob: WIMM 192300Z 22003KT 5000 HZ SCT018 25/25 Q1010 NOSIG
cycle: 23

Station Type Date Time Source
WIMM TAF 2020/01/19 18:09 UTC NOAA

TAF WIMM 191700Z 1918/2018 26004KT 3000 BR SCT017
BECMG 2002/2004 34009KT 9000 NSW
BECMG 2010/2012 VRB04KT 5000 HZ

Example: see airport list